Time;durP1;ratioP1;P1;durP2;ratioP2;P2;SDS_P1;SDS_P2;PMS_P1;PMS_P2;Temp;Humidity;BMP_temperature;BMP_pressure;BME280_temperature;BME280_humidity;BME280_pressure;Samples;Min_cycle;Max_cycle;Signal;HPM_P1;HPM_P2
2024/03/08 06:42:31;;;;;;;;;;;17.10;38.60;;;;;;5077712;28;19935;-78
2024/03/08 06:45:37;;;;;;;;;;;13.10;43.70;;;;;;5043209;28;19933;-78
2024/03/08 06:48:38;;;;;;;;;;;10.60;48.80;;;;;;5021149;28;19922;-77
2024/03/08 06:55:25;;;;;;;;;;;7.50;57.80;;;;;;5055606;28;19936;-78
2024/03/08 06:58:13;;;;;;;;;;;6.30;61.60;;;;;;5072507;28;19923;-78
2024/03/08 07:04:31;;;;;;;;;;;;;;;;;;;;;
2024/03/08 07:07:30;;;;;;;;;;;4.50;69.30;;;;;;5107828;27;19997;-77
2024/03/08 07:10:36;;;;;;;;;;;;;;;;;;;;;
2024/03/08 07:13:30;;;;;;;;;;;4.00;72.20;;;;;;5121234;28;20832;-78
2024/03/08 07:16:12;;;;;;;;;;;3.90;73.20;;;;;;5135070;27;19923;-77
2024/03/08 07:19:00;;;;;;;;;;;3.80;74.30;;;;;;5152030;27;20021;-78
2024/03/08 07:22:03;;;;;;;;;;;3.80;75.40;;;;;;5163650;27;19952;-77
2024/03/08 07:27:43;;;;;;;;;;;3.70;76.00;;;;;;5172074;27;19931;-78
2024/03/08 07:33:50;;;;;;;;;;;3.90;75.70;;;;;;5165026;27;20068;-77
2024/03/08 07:40:34;;;;;;;;;;;;;;;;;;;;;
2024/03/08 07:43:29;;;;;;;;;;;4.20;76.10;;;;;;5152409;27;19980;-78
2024/03/08 07:46:18;;;;;;;;;;;4.30;75.30;;;;;;5089350;28;19924;-78
2024/03/08 07:49:28;;;;;;;;;;;4.40;75.00;;;;;;5131745;27;20302;-79
2024/03/08 07:52:29;;;;;;;;;;;4.50;75.10;;;;;;5111274;27;19942;-79
2024/03/08 07:55:28;;;;;;;;;;;4.60;74.70;;;;;;5125935;27;19923;-78
2024/03/08 07:59:10;;;;;;;;;;;4.80;74.80;;;;;;5125565;27;19935;-78
2024/03/08 08:02:12;;;;;;;;;;;5.00;75.00;;;;;;5143850;27;19927;-78
2024/03/08 08:04:48;;;;;;;;;;;5.10;73.90;;;;;;5107477;27;19962;-78
2024/03/08 08:07:41;;;;;;;;;;;5.30;73.80;;;;;;5129382;27;20321;-78
2024/03/08 08:16:57;;;;;;;;;;;5.80;71.70;;;;;;5074793;27;19931;-78
2024/03/08 08:23:19;;;;;;;;;;;6.20;72.10;;;;;;5151685;27;19955;-78
2024/03/08 08:26:29;;;;;;;;;;;;;;;;;;;;;
2024/03/08 08:30:20;;;;;;;;;;;6.70;69.60;;;;;;5143229;27;20361;-78
2024/03/08 08:34:00;;;;;;;;;;;;;;;;;;;;;
2024/03/08 08:37:25;;;;;;;;;;;7.10;69.20;;;;;;5061900;28;19932;-78
2024/03/08 08:41:06;;;;;;;;;;;7.30;68.00;;;;;;5059380;28;19924;-78
2024/03/08 08:48:23;;;;;;;;;;;8.00;66.80;;;;;;4931364;28;19922;-79
2024/03/08 08:51:56;;;;;;;;;;;10.10;64.40;;;;;;5072939;28;19923;-79
2024/03/08 08:55:13;;;;;;;;;;;;;;;;;;;;;
2024/03/08 08:58:31;;;;;;;;;;;16.00;52.30;;;;;;5062815;28;19974;-79
2024/03/08 09:01:38;;;;;;;;;;;18.40;47.50;;;;;;5106729;27;19924;-80
2024/03/08 09:04:29;;;;;;;;;;;20.30;43.00;;;;;;5118601;27;19926;-79
2024/03/08 09:07:56;;;;;;;;;;;21.90;39.50;;;;;;5026933;28;19928;-79
2024/03/08 09:21:40;;;;;;;;;;;26.40;31.40;;;;;;4865883;29;19988;-80
2024/03/08 09:24:57;;;;;;;;;;;;;;;;;;;;;
2024/03/08 10:03:23;;;;;;;;;;;33.60;23.50;;;;;;4990147;28;20291;-79
2024/03/08 10:10:07;;;;;;;;;;;34.10;23.00;;;;;;5053977;28;19931;-80
2024/03/08 10:43:22;;;;;;;;;;;36.10;21.50;;;;;;5081150;28;20267;-80
2024/03/08 11:00:33;;;;;;;;;;;37.00;20.80;;;;;;4952270;28;19989;-80
2024/03/08 11:21:02;;;;;;;;;;;38.50;19.90;;;;;;4814469;29;19931;-81
2024/03/08 11:31:40;;;;;;;;;;;;;;;;;;;;;
2024/03/08 12:02:15;;;;;;;;;;;40.20;18.90;;;;;;6285591;22;20363;-82
2024/03/08 12:09:02;;;;;;;;;;;;;;;;;;;;;
2024/03/08 12:12:12;;;;;;;;;;;40.10;18.40;;;;;;6161025;23;19929;-82
2024/03/08 12:14:46;;;;;;;;;;;40.80;18.50;;;;;;6221773;23;19923;-80
2024/03/08 12:17:13;;;;;;;;;;;40.50;18.70;;;;;;6221485;23;19920;-80
2024/03/08 12:19:45;;;;;;;;;;;40.40;18.80;;;;;;6221397;23;19994;-80
2024/03/08 12:22:15;;;;;;;;;;;40.60;18.00;;;;;;6196440;23;19930;-79
2024/03/08 12:24:46;;;;;;;;;;;40.40;18.00;;;;;;6221883;23;19920;-81
2024/03/08 12:38:35;;;;;;;;;;;39.60;18.20;;;;;;5987270;24;19922;-81
2024/03/08 12:41:49;;;;;;;;;;;39.20;18.40;;;;;;5967663;24;19932;-82
2024/03/08 12:56:09;;;;;;;;;;;38.90;18.50;;;;;;5931772;24;19927;-79
2024/03/08 12:59:03;;;;;;;;;;;39.40;17.90;;;;;;5893134;24;20230;-81
2024/03/08 13:02:24;;;;;;;;;;;39.00;18.10;;;;;;5897855;24;20002;-82
2024/03/08 13:09:21;;;;;;;;;;;37.80;18.40;;;;;;5897361;24;19929;-83
2024/03/08 13:12:42;;;;;;;;;;;;;;;;;;;;;
2024/03/08 13:32:53;;;;;;;;;;;36.90;18.50;;;;;;6289488;22;19921;-81
2024/03/08 13:36:35;;;;;;;;;;;36.50;18.70;;;;;;6210799;22;19989;-81
2024/03/08 13:39:34;;;;;;;;;;;;;;;;;;;;;
2024/03/08 13:46:28;;;;;;;;;;;36.20;19.20;;;;;;6249413;22;19923;-81
2024/03/08 13:49:25;;;;;;;;;;;36.20;19.20;;;;;;6238548;22;19973;-81
2024/03/08 13:53:04;;;;;;;;;;;36.00;19.50;;;;;;6103592;23;19925;-81
2024/03/08 13:55:44;;;;;;;;;;;35.30;19.40;;;;;;6101113;23;20084;-81
2024/03/08 13:58:57;;;;;;;;;;;34.90;20.00;;;;;;6118849;23;19921;-81
2024/03/08 14:05:55;;;;;;;;;;;;;;;;;;;;;
2024/03/08 14:09:07;;;;;;;;;;;;;;;;;;;;;
2024/03/08 14:12:14;;;;;;;;;;;34.30;19.60;;;;;;5939639;24;19927;-81
2024/03/08 14:15:30;;;;;;;;;;;;;;;;;;;;;
2024/03/08 14:22:04;;;;;;;;;;;33.30;20.80;;;;;;6093261;23;19959;-81
2024/03/08 14:31:57;;;;;;;;;;;;;;;;;;;;;
2024/03/08 14:35:03;;;;;;;;;;;31.20;21.90;;;;;;6275432;22;19930;-81
2024/03/08 14:42:08;;;;;;;;;;;30.00;22.60;;;;;;6079407;23;19943;-81
2024/03/08 14:52:42;;;;;;;;;;;;;;;;;;;;;
2024/03/08 14:56:09;;;;;;;;;;;29.40;23.20;;;;;;6083090;23;19950;-81
2024/03/08 15:02:59;;;;;;;;;;;;;;;;;;;;;
2024/03/08 15:06:39;;;;;;;;;;;28.60;24.10;;;;;;6211341;23;19920;-81
2024/03/08 15:09:52;;;;;;;;;;;28.20;24.20;;;;;;6193889;22;19923;-81
2024/03/08 15:23:30;;;;;;;;;;;22.60;28.50;;;;;;6211886;22;19919;-81
2024/03/08 15:26:33;;;;;;;;;;;21.20;30.40;;;;;;6209553;23;20305;-81
2024/03/08 15:34:02;;;;;;;;;;;;;;;;;;;;;
2024/03/08 15:37:07;;;;;;;;;;;18.60;34.40;;;;;;6144095;23;19939;-81
2024/03/08 15:40:16;;;;;;;;;;;;;;;;;;;;;
2024/03/08 15:43:29;;;;;;;;;;;17.40;36.20;;;;;;6151510;23;20215;-81
2024/03/08 15:50:15;;;;;;;;;;;16.50;37.20;;;;;;6134432;23;19959;-80
2024/03/08 15:56:57;;;;;;;;;;;15.90;37.70;;;;;;6183397;23;19973;-81
2024/03/08 16:00:25;;;;;;;;;;;;;;;;;;;;;
2024/03/08 16:03:18;;;;;;;;;;;15.10;38.90;;;;;;6244804;23;19931;-80
2024/03/08 16:06:27;;;;;;;;;;;14.80;39.40;;;;;;6242773;23;19945;-81
2024/03/08 16:09:34;;;;;;;;;;;14.50;39.90;;;;;;6232346;23;19920;-80
2024/03/08 16:13:25;;;;;;;;;;;;;;;;;;;;;
2024/03/08 16:26:33;;;;;;;;;;;13.00;37.80;;;;;;6036841;23;20384;-80
2024/03/08 16:33:24;;;;;;;;;;;;;;;;;;;;;
2024/03/08 16:39:59;;;;;;;;;;;11.90;38.80;;;;;;6009036;23;19926;-80
2024/03/08 16:46:24;;;;;;;;;;;11.50;39.50;;;;;;5970077;23;20257;-80
2024/03/08 16:49:23;;;;;;;;;;;11.20;40.00;;;;;;6009618;23;20256;-80
2024/03/08 16:51:51;;;;;;;;;;;11.00;41.70;;;;;;6041667;23;20374;-80
2024/03/08 16:54:29;;;;;;;;;;;10.90;40.90;;;;;;6123575;23;19925;-79
2024/03/08 16:58:04;;;;;;;;;;;10.70;41.20;;;;;;6123642;23;20332;-80
2024/03/08 17:00:55;;;;;;;;;;;10.50;41.50;;;;;;6117366;23;19921;-80
2024/03/08 17:04:22;;;;;;;;;;;10.30;41.90;;;;;;6027359;23;19929;-79
2024/03/08 17:07:25;;;;;;;;;;;;;;;;;;;;;
2024/03/08 17:10:36;;;;;;;;;;;9.90;43.70;;;;;;6008565;23;19923;-80
2024/03/08 17:17:30;;;;;;;;;;;9.60;44.20;;;;;;6052133;23;19952;-79
2024/03/08 17:20:41;;;;;;;;;;;9.40;44.80;;;;;;6085040;23;19928;-79
2024/03/08 17:23:37;;;;;;;;;;;9.30;45.50;;;;;;6008626;23;19928;-79
2024/03/08 17:26:57;;;;;;;;;;;9.10;45.60;;;;;;5989218;23;20013;-79
2024/03/08 17:29:52;;;;;;;;;;;9.00;46.30;;;;;;6009271;23;19928;-79
2024/03/08 17:32:42;;;;;;;;;;;8.80;47.30;;;;;;6009398;23;19965;-79
2024/03/08 17:36:13;;;;;;;;;;;;;;;;;;;;;
2024/03/08 17:42:30;;;;;;;;;;;8.50;47.30;;;;;;6245528;23;19923;-79
2024/03/08 17:45:27;;;;;;;;;;;8.30;47.90;;;;;;6222046;23;19919;-80
2024/03/08 17:48:40;;;;;;;;;;;8.30;48.10;;;;;;6222485;23;19920;-80
2024/03/08 17:51:30;;;;;;;;;;;8.10;48.10;;;;;;6229881;23;19981;-79
2024/03/08 17:54:08;;;;;;;;;;;8.00;48.30;;;;;;6217123;23;19962;-79
2024/03/08 17:57:10;;;;;;;;;;;8.00;48.60;;;;;;6221031;23;19923;-79
2024/03/08 18:03:19;;;;;;;;;;;7.80;49.60;;;;;;6153568;23;19940;-80
2024/03/08 18:06:09;;;;;;;;;;;7.70;49.40;;;;;;6212548;23;19990;-80
2024/03/08 18:12:32;;;;;;;;;;;7.50;50.10;;;;;;6171904;23;19920;-79
2024/03/08 18:15:44;;;;;;;;;;;7.40;50.50;;;;;;6220796;23;19920;-80
2024/03/08 18:21:38;;;;;;;;;;;7.30;51.60;;;;;;6245240;23;19920;-79
2024/03/08 18:24:57;;;;;;;;;;;7.20;51.70;;;;;;6215514;23;20233;-79
2024/03/08 18:27:39;;;;;;;;;;;7.10;51.80;;;;;;6245390;23;19978;-79
2024/03/08 18:30:40;;;;;;;;;;;7.00;52.30;;;;;;6188431;23;19931;-79
2024/03/08 18:33:33;;;;;;;;;;;;;;;;;;;;;
2024/03/08 18:36:30;;;;;;;;;;;6.80;53.50;;;;;;6212826;23;19923;-80
2024/03/08 18:39:26;;;;;;;;;;;6.70;53.70;;;;;;6186685;23;19942;-79
2024/03/08 18:42:22;;;;;;;;;;;6.70;54.30;;;;;;6213257;23;19931;-80
2024/03/08 18:45:02;;;;;;;;;;;6.60;54.50;;;;;;6212054;23;19954;-79
2024/03/08 18:48:17;;;;;;;;;;;;;;;;;;;;;
2024/03/08 18:50:57;;;;;;;;;;;6.40;54.50;;;;;;6212975;23;20003;-79
2024/03/08 18:54:03;;;;;;;;;;;6.30;55.00;;;;;;6160757;23;19927;-79
2024/03/08 18:56:57;;;;;;;;;;;;;;;;;;;;;
2024/03/08 19:00:00;;;;;;;;;;;6.10;55.30;;;;;;6215102;23;19947;-80
2024/03/08 19:02:45;;;;;;;;;;;6.10;55.70;;;;;;6213688;23;19995;-79
2024/03/08 19:05:32;;;;;;;;;;;6.00;56.10;;;;;;6233344;23;19931;-79
2024/03/08 19:08:26;;;;;;;;;;;6.00;56.40;;;;;;6213421;23;20001;-79
2024/03/08 19:11:18;;;;;;;;;;;5.90;56.80;;;;;;6175020;23;19931;-79
2024/03/08 19:14:00;;;;;;;;;;;5.90;56.90;;;;;;6213507;23;19920;-79
2024/03/08 19:17:00;;;;;;;;;;;5.80;57.10;;;;;;6209832;23;19916;-79
2024/03/08 19:19:50;;;;;;;;;;;5.80;57.30;;;;;;6213192;23;19947;-79
2024/03/08 19:22:51;;;;;;;;;;;5.70;57.40;;;;;;6212140;23;19930;-79
2024/03/08 19:25:52;;;;;;;;;;;;;;;;;;;;;
2024/03/08 19:28:46;;;;;;;;;;;5.60;58.10;;;;;;6232040;22;19931;-79
2024/03/08 19:31:41;;;;;;;;;;;5.50;58.10;;;;;;6203268;22;20312;-79
2024/03/08 19:37:44;;;;;;;;;;;5.40;58.40;;;;;;6275183;22;19934;-80
2024/03/08 19:40:42;;;;;;;;;;;5.40;58.60;;;;;;6273106;22;19930;-79
2024/03/08 19:43:56;;;;;;;;;;;5.30;58.90;;;;;;6250824;22;20390;-80
2024/03/08 19:47:12;;;;;;;;;;;5.30;59.30;;;;;;6252280;22;20223;-78
2024/03/08 19:50:02;;;;;;;;;;;5.20;59.30;;;;;;6212083;23;20003;-80
2024/03/08 19:53:07;;;;;;;;;;;5.20;59.70;;;;;;6235877;22;20582;-78
2024/03/08 19:56:43;;;;;;;;;;;;;;;;;;;;;
2024/03/08 20:00:14;;;;;;;;;;;;;;;;;;;;;
2024/03/08 20:03:20;;;;;;;;;;;5.10;60.60;;;;;;6195729;23;19928;-79
2024/03/08 20:06:21;;;;;;;;;;;5.00;60.60;;;;;;6212442;23;19954;-80
2024/03/08 20:23:20;;;;;;;;;;;4.70;61.90;;;;;;6250541;22;19957;-79
2024/03/08 20:26:15;;;;;;;;;;;4.60;62.70;;;;;;6274293;22;19919;-79
2024/03/08 20:29:41;;;;;;;;;;;;;;;;;;;;;
2024/03/08 20:33:07;;;;;;;;;;;4.50;64.00;;;;;;6228630;23;19931;-79
2024/03/08 20:43:30;;;;;;;;;;;4.40;64.80;;;;;;6239342;22;19935;-79
2024/03/08 20:46:42;;;;;;;;;;;4.30;65.30;;;;;;6191866;23;19962;-79
2024/03/08 20:49:30;;;;;;;;;;;4.30;66.00;;;;;;6244804;23;19977;-79
2024/03/08 20:52:28;;;;;;;;;;;4.30;66.50;;;;;;6244276;23;19928;-79
2024/03/08 20:58:30;;;;;;;;;;;4.30;67.00;;;;;;6222082;22;19981;-80
2024/03/08 21:01:34;;;;;;;;;;;4.20;66.90;;;;;;6195764;23;19916;-80
2024/03/08 21:04:32;;;;;;;;;;;4.20;67.40;;;;;;6245662;22;19998;-79
2024/03/08 21:07:34;;;;;;;;;;;4.20;67.90;;;;;;6237314;23;19930;-79
2024/03/08 21:10:18;;;;;;;;;;;4.10;67.60;;;;;;6239857;23;20259;-80
2024/03/08 21:17:00;;;;;;;;;;;4.10;68.60;;;;;;6193334;22;20332;-80
2024/03/08 21:23:35;;;;;;;;;;;4.10;69.40;;;;;;6215773;22;19926;-79
2024/03/08 21:26:14;;;;;;;;;;;4.00;69.50;;;;;;6246109;23;20288;-79
2024/03/08 21:29:08;;;;;;;;;;;4.00;69.70;;;;;;6225589;23;19919;-79
2024/03/08 21:35:08;;;;;;;;;;;3.90;70.30;;;;;;6228171;23;20320;-79
2024/03/08 21:38:07;;;;;;;;;;;3.90;70.10;;;;;;6245116;23;19927;-80
2024/03/08 21:41:08;;;;;;;;;;;;;;;;;;;;;
2024/03/08 21:44:01;;;;;;;;;;;3.80;70.80;;;;;;6236026;23;19931;-80
2024/03/08 21:47:01;;;;;;;;;;;3.80;70.60;;;;;;6212532;23;20819;-78
2024/03/08 21:50:09;;;;;;;;;;;3.70;70.70;;;;;;6213453;23;20019;-79
2024/03/08 21:55:54;;;;;;;;;;;3.70;71.70;;;;;;6211951;23;19924;-80
2024/03/08 21:59:04;;;;;;;;;;;3.70;71.50;;;;;;6190508;23;19986;-79
2024/03/08 22:05:40;;;;;;;;;;;3.60;71.80;;;;;;6053202;23;19961;-79
2024/03/08 22:08:32;;;;;;;;;;;3.60;71.90;;;;;;6162737;23;19968;-78
2024/03/08 22:11:35;;;;;;;;;;;3.50;71.80;;;;;;6215814;23;19935;-78
2024/03/08 22:14:12;;;;;;;;;;;3.60;72.20;;;;;;6250047;22;20002;-80
2024/03/08 22:17:35;;;;;;;;;;;3.50;72.20;;;;;;6134824;23;19917;-79
2024/03/08 22:20:26;;;;;;;;;;;3.50;72.40;;;;;;6132912;23;19920;-79
2024/03/08 22:23:26;;;;;;;;;;;3.40;72.50;;;;;;6132067;23;19995;-78
2024/03/08 22:26:22;;;;;;;;;;;3.40;72.80;;;;;;6129967;23;19936;-79
2024/03/08 22:29:09;;;;;;;;;;;3.40;72.60;;;;;;6294655;22;19918;-79
2024/03/08 22:32:20;;;;;;;;;;;3.40;72.60;;;;;;6265096;22;19923;-80
2024/03/08 22:35:49;;;;;;;;;;;;;;;;;;;;;
2024/03/08 22:39:01;;;;;;;;;;;3.30;73.10;;;;;;6306856;22;19923;-80
2024/03/08 22:42:06;;;;;;;;;;;;;;;;;;;;;
2024/03/08 22:44:59;;;;;;;;;;;3.20;73.60;;;;;;6304431;22;19919;-79
2024/03/08 22:47:36;;;;;;;;;;;3.20;74.20;;;;;;6281382;22;19919;-79
2024/03/08 22:50:16;;;;;;;;;;;3.10;74.10;;;;;;6306244;22;19927;-78
2024/03/08 22:53:11;;;;;;;;;;;3.10;74.10;;;;;;6273989;22;19920;-80
2024/03/08 22:55:54;;;;;;;;;;;3.10;74.50;;;;;;6281828;22;19926;-79
2024/03/08 22:58:32;;;;;;;;;;;3.10;74.60;;;;;;6281303;22;19996;-78
2024/03/08 23:01:15;;;;;;;;;;;3.10;74.10;;;;;;6281562;22;20021;-79
2024/03/08 23:04:01;;;;;;;;;;;3.10;74.40;;;;;;6277843;22;19914;-79
2024/03/08 23:06:43;;;;;;;;;;;3.10;74.60;;;;;;6282488;22;19923;-79
2024/03/08 23:09:22;;;;;;;;;;;3.00;74.40;;;;;;6281830;22;19922;-79
2024/03/08 23:11:54;;;;;;;;;;;3.00;74.40;;;;;;6280771;22;19919;-80
2024/03/08 23:14:37;;;;;;;;;;;3.00;74.80;;;;;;6280982;22;20201;-79
2024/03/08 23:17:37;;;;;;;;;;;3.00;74.60;;;;;;6281381;22;20323;-79
2024/03/08 23:20:31;;;;;;;;;;;2.90;74.50;;;;;;6290668;22;19915;-80
2024/03/08 23:23:22;;;;;;;;;;;2.90;75.30;;;;;;6282030;22;20014;-80
2024/03/08 23:26:04;;;;;;;;;;;2.90;75.00;;;;;;6281927;22;19919;-80
2024/03/08 23:28:51;;;;;;;;;;;2.80;74.50;;;;;;6300756;22;19919;-79
2024/03/08 23:31:45;;;;;;;;;;;2.70;74.50;;;;;;6338482;22;20361;-80
2024/03/08 23:34:22;;;;;;;;;;;2.70;75.00;;;;;;6312708;22;19919;-80
2024/03/08 23:37:01;;;;;;;;;;;2.80;75.70;;;;;;6313623;22;19976;-79
2024/03/08 23:39:46;;;;;;;;;;;2.70;75.30;;;;;;6313053;22;19950;-80
2024/03/08 23:42:32;;;;;;;;;;;2.70;75.10;;;;;;6311139;22;19919;-79
2024/03/08 23:45:16;;;;;;;;;;;2.80;76.10;;;;;;6311070;22;19930;-79
2024/03/08 23:51:00;;;;;;;;;;;2.80;76.30;;;;;;6261964;22;20232;-80
2024/03/08 23:53:31;;;;;;;;;;;2.80;76.20;;;;;;6311491;22;19918;-79
2024/03/08 23:56:16;;;;;;;;;;;2.80;76.10;;;;;;6312372;22;19918;-78
2024/03/08 23:59:01;;;;;;;;;;;2.80;76.50;;;;;;6311914;22;19929;-79
